This is the latest recevied weather packets stored in our database for station/object OE3WYC-1. If no packets are shown the sender has not sent any weather packets the latest 10 day(s).
| Time | Temp. | Humidity | Pressure | Rain* | Wind** | Luminosity | Snow |
|---|---|---|---|---|---|---|---|
| 1777687504 | 8.33° C | 72% | 1024.4 hPa | 0 mm | - | - | - |
| 1777686605 | 8.33° C | 70% | 1024.3 hPa | 0 mm | - | - | - |
| 1777686305 | 8.33° C | 70% | 1024.3 hPa | 0 mm | - | - | - |
| 1777685704 | 8.33° C | 70% | 1024.2 hPa | 0 mm | - | - | - |
| 1777681506 | 9.44° C | 68% | 1024.5 hPa | 0 mm | - | - | - |
| 1777680305 | 9.44° C | 68% | 1024.4 hPa | 0 mm | - | - | - |
| 1777679704 | 10° C | 68% | 1024.5 hPa | 0 mm | - | - | - |
| 1777676705 | 10.56° C | 66% | 1024.7 hPa | 0 mm | - | - | - |
| 1777676105 | 10.56° C | 66% | 1024.7 hPa | 0 mm | - | - | - |
| 1777675204 | 11.11° C | 65% | 1024.7 hPa | 0 mm | - | - | - |
| 1777674906 | 11.11° C | 65% | 1024.7 hPa | 0 mm | - | - | - |
| 1777668904 | 13.33° C | 57% | 1024.5 hPa | 0 mm | - | - | - |
| 1777667404 | 13.89° C | 56% | 1024.5 hPa | 0 mm | - | - | - |
| 1777664405 | 15.56° C | 51% | 1024.5 hPa | 0 mm | - | - | - |
| 1777663505 | 16.11° C | 49% | 1024.4 hPa | 0 mm | - | - | - |
| 1777661405 | 17.22° C | 45% | 1024.2 hPa | 0 mm | - | - | - |
| 1777659304 | 18.89° C | 41% | 1023.8 hPa | 0 mm | - | - | - |
| 1777655104 | 20.56° C | 36% | 1023.7 hPa | 0 mm | - | - | - |
| 1777647604 | 20.56° C | 38% | 1024.8 hPa | 0 mm | - | - | - |
| 1777646405 | 20.56° C | 38% | 1024.9 hPa | 0 mm | - | - | - |
| 1777645805 | 20.56° C | 38% | 1025 hPa | 0 mm | - | - | - |
| 1777644304 | 20° C | 38% | 1025.2 hPa | 0 mm | - | - | - |
| 1777643404 | 19.44° C | 39% | 1025.3 hPa | 0 mm | - | - | - |
| 1777641604 | 20° C | 39% | 1025.7 hPa | 0 mm | - | - | - |
| 1777641005 | 19.44° C | 39% | 1025.8 hPa | 0 mm | - | - | - |
* Rain latest hour (hover to see other rain measurements)
** Current wind speed in m/s (hover to see current wind gust speed)